sensor_id;sensor_type;location;lat;lon;timestamp;P1;durP1;ratioP1;P2;durP2;ratioP2
53977;SDS011;39886;47.984;-1.586;2023-08-31T00:02:12;1.30;;;1.15;;
53977;SDS011;39886;47.984;-1.586;2023-08-31T00:04:38;1.38;;;1.02;;
53977;SDS011;39886;47.984;-1.586;2023-08-31T00:07:04;1.23;;;1.00;;
53977;SDS011;39886;47.984;-1.586;2023-08-31T00:09:30;2.08;;;1.35;;
53977;SDS011;39886;47.984;-1.586;2023-08-31T00:11:55;1.10;;;1.00;;
53977;SDS011;39886;47.984;-1.586;2023-08-31T00:14:22;1.83;;;1.00;;
53977;SDS011;39886;47.984;-1.586;2023-08-31T00:16:48;1.77;;;1.38;;
53977;SDS011;39886;47.984;-1.586;2023-08-31T00:19:15;1.75;;;1.20;;
53977;SDS011;39886;47.984;-1.586;2023-08-31T00:21:41;1.20;;;1.10;;
53977;SDS011;39886;47.984;-1.586;2023-08-31T00:24:07;1.65;;;1.08;;
53977;SDS011;39886;47.984;-1.586;2023-08-31T00:26:34;2.00;;;1.23;;
53977;SDS011;39886;47.984;-1.586;2023-08-31T00:29:05;1.20;;;0.90;;
53977;SDS011;39886;47.984;-1.586;2023-08-31T00:31:35;1.45;;;1.08;;
53977;SDS011;39886;47.984;-1.586;2023-08-31T00:34:02;1.35;;;0.90;;
53977;SDS011;39886;47.984;-1.586;2023-08-31T00:36:29;1.05;;;0.95;;
53977;SDS011;39886;47.984;-1.586;2023-08-31T00:38:56;1.90;;;1.10;;
53977;SDS011;39886;47.984;-1.586;2023-08-31T00:41:22;1.58;;;1.00;;
53977;SDS011;39886;47.984;-1.586;2023-08-31T00:43:48;2.08;;;1.27;;
53977;SDS011;39886;47.984;-1.586;2023-08-31T00:46:13;1.90;;;1.30;;
53977;SDS011;39886;47.984;-1.586;2023-08-31T00:48:40;2.05;;;1.27;;
53977;SDS011;39886;47.984;-1.586;2023-08-31T00:51:06;1.33;;;1.00;;
53977;SDS011;39886;47.984;-1.586;2023-08-31T00:53:33;1.77;;;1.30;;
53977;SDS011;39886;47.984;-1.586;2023-08-31T00:56:00;1.08;;;0.98;;
53977;SDS011;39886;47.984;-1.586;2023-08-31T00:58:25;1.10;;;1.00;;
53977;SDS011;39886;47.984;-1.586;2023-08-31T01:01:06;1.35;;;1.10;;
53977;SDS011;39886;47.984;-1.586;2023-08-31T01:06:38;2.08;;;1.30;;
53977;SDS011;39886;47.984;-1.586;2023-08-31T01:09:45;1.45;;;1.13;;
53977;SDS011;39886;47.984;-1.586;2023-08-31T01:12:34;1.02;;;0.95;;
53977;SDS011;39886;47.984;-1.586;2023-08-31T01:15:10;1.23;;;1.13;;
53977;SDS011;39886;47.984;-1.586;2023-08-31T01:17:39;1.33;;;1.00;;
53977;SDS011;39886;47.984;-1.586;2023-08-31T01:20:10;1.70;;;1.03;;
53977;SDS011;39886;47.984;-1.586;2023-08-31T01:22:39;1.27;;;1.10;;
53977;SDS011;39886;47.984;-1.586;2023-08-31T01:25:06;1.35;;;0.90;;
53977;SDS011;39886;47.984;-1.586;2023-08-31T01:27:34;1.23;;;1.08;;
53977;SDS011;39886;47.984;-1.586;2023-08-31T01:30:02;1.02;;;0.93;;
53977;SDS011;39886;47.984;-1.586;2023-08-31T01:32:29;1.40;;;0.95;;
53977;SDS011;39886;47.984;-1.586;2023-08-31T01:34:55;1.45;;;1.02;;
53977;SDS011;39886;47.984;-1.586;2023-08-31T01:37:28;2.03;;;1.10;;
53977;SDS011;39886;47.984;-1.586;2023-08-31T01:40:02;1.27;;;0.90;;
53977;SDS011;39886;47.984;-1.586;2023-08-31T01:42:40;1.77;;;1.17;;
53977;SDS011;39886;47.984;-1.586;2023-08-31T01:45:07;0.95;;;0.90;;
53977;SDS011;39886;47.984;-1.586;2023-08-31T01:47:35;1.38;;;1.10;;
53977;SDS011;39886;47.984;-1.586;2023-08-31T01:50:01;1.23;;;1.13;;
53977;SDS011;39886;47.984;-1.586;2023-08-31T01:52:27;1.20;;;1.10;;
53977;SDS011;39886;47.984;-1.586;2023-08-31T01:54:52;1.35;;;1.17;;
53977;SDS011;39886;47.984;-1.586;2023-08-31T01:57:18;0.93;;;0.85;;
53977;SDS011;39886;47.984;-1.586;2023-08-31T01:59:44;1.73;;;1.15;;
53977;SDS011;39886;47.984;-1.586;2023-08-31T02:02:10;1.15;;;0.95;;
53977;SDS011;39886;47.984;-1.586;2023-08-31T02:04:35;1.52;;;1.10;;
53977;SDS011;39886;47.984;-1.586;2023-08-31T02:07:01;1.75;;;1.10;;
53977;SDS011;39886;47.984;-1.586;2023-08-31T02:09:27;1.88;;;1.10;;
53977;SDS011;39886;47.984;-1.586;2023-08-31T02:11:53;1.45;;;1.02;;
53977;SDS011;39886;47.984;-1.586;2023-08-31T02:14:18;1.10;;;1.00;;
53977;SDS011;39886;47.984;-1.586;2023-08-31T02:16:44;1.55;;;0.90;;
53977;SDS011;39886;47.984;-1.586;2023-08-31T02:19:10;1.48;;;1.10;;
53977;SDS011;39886;47.984;-1.586;2023-08-31T02:21:35;1.20;;;1.00;;
53977;SDS011;39886;47.984;-1.586;2023-08-31T02:24:01;1.38;;;1.02;;
53977;SDS011;39886;47.984;-1.586;2023-08-31T02:26:28;1.48;;;1.20;;
53977;SDS011;39886;47.984;-1.586;2023-08-31T02:28:53;2.38;;;1.23;;
53977;SDS011;39886;47.984;-1.586;2023-08-31T02:31:19;1.75;;;0.95;;
53977;SDS011;39886;47.984;-1.586;2023-08-31T02:33:46;1.02;;;0.90;;
53977;SDS011;39886;47.984;-1.586;2023-08-31T02:36:12;1.58;;;1.00;;
53977;SDS011;39886;47.984;-1.586;2023-08-31T02:38:37;1.05;;;0.90;;
53977;SDS011;39886;47.984;-1.586;2023-08-31T02:41:03;1.30;;;1.08;;
53977;SDS011;39886;47.984;-1.586;2023-08-31T02:43:29;2.00;;;1.15;;
53977;SDS011;39886;47.984;-1.586;2023-08-31T02:45:58;1.10;;;1.00;;
53977;SDS011;39886;47.984;-1.586;2023-08-31T02:48:25;0.88;;;0.80;;
53977;SDS011;39886;47.984;-1.586;2023-08-31T02:50:53;1.67;;;1.00;;
53977;SDS011;39886;47.984;-1.586;2023-08-31T02:53:19;1.63;;;1.17;;
53977;SDS011;39886;47.984;-1.586;2023-08-31T02:55:44;1.10;;;1.00;;
53977;SDS011;39886;47.984;-1.586;2023-08-31T02:58:10;1.00;;;0.90;;
53977;SDS011;39886;47.984;-1.586;2023-08-31T03:00:36;0.88;;;0.88;;
53977;SDS011;39886;47.984;-1.586;2023-08-31T03:03:07;2.13;;;1.02;;
53977;SDS011;39886;47.984;-1.586;2023-08-31T03:05:33;1.15;;;1.02;;
53977;SDS011;39886;47.984;-1.586;2023-08-31T03:07:59;1.13;;;0.93;;
53977;SDS011;39886;47.984;-1.586;2023-08-31T03:10:25;1.10;;;1.00;;
53977;SDS011;39886;47.984;-1.586;2023-08-31T03:12:51;1.33;;;1.23;;
53977;SDS011;39886;47.984;-1.586;2023-08-31T03:15:16;1.00;;;0.90;;
53977;SDS011;39886;47.984;-1.586;2023-08-31T03:17:42;0.95;;;0.82;;
53977;SDS011;39886;47.984;-1.586;2023-08-31T03:20:08;1.58;;;1.10;;
53977;SDS011;39886;47.984;-1.586;2023-08-31T03:22:35;0.80;;;0.80;;
53977;SDS011;39886;47.984;-1.586;2023-08-31T03:25:00;0.90;;;0.85;;
53977;SDS011;39886;47.984;-1.586;2023-08-31T03:27:26;1.17;;;0.95;;
53977;SDS011;39886;47.984;-1.586;2023-08-31T03:29:52;1.17;;;0.90;;
53977;SDS011;39886;47.984;-1.586;2023-08-31T03:32:18;1.00;;;0.90;;
53977;SDS011;39886;47.984;-1.586;2023-08-31T03:34:44;1.20;;;1.08;;
53977;SDS011;39886;47.984;-1.586;2023-08-31T03:37:10;1.45;;;1.00;;
53977;SDS011;39886;47.984;-1.586;2023-08-31T03:39:35;0.90;;;0.90;;
53977;SDS011;39886;47.984;-1.586;2023-08-31T03:42:02;1.27;;;1.00;;
53977;SDS011;39886;47.984;-1.586;2023-08-31T03:44:28;1.05;;;0.95;;
53977;SDS011;39886;47.984;-1.586;2023-08-31T03:46:54;1.10;;;1.00;;
53977;SDS011;39886;47.984;-1.586;2023-08-31T03:49:19;0.98;;;0.77;;
53977;SDS011;39886;47.984;-1.586;2023-08-31T03:51:45;1.10;;;0.80;;
53977;SDS011;39886;47.984;-1.586;2023-08-31T03:54:11;1.35;;;0.90;;
53977;SDS011;39886;47.984;-1.586;2023-08-31T03:56:38;1.67;;;1.13;;
53977;SDS011;39886;47.984;-1.586;2023-08-31T03:59:03;1.10;;;1.00;;
53977;SDS011;39886;47.984;-1.586;2023-08-31T04:01:30;1.05;;;0.98;;
53977;SDS011;39886;47.984;-1.586;2023-08-31T04:03:56;1.15;;;0.98;;
53977;SDS011;39886;47.984;-1.586;2023-08-31T04:06:22;1.17;;;0.82;;
53977;SDS011;39886;47.984;-1.586;2023-08-31T04:08:47;1.15;;;0.98;;
53977;SDS011;39886;47.984;-1.586;2023-08-31T04:11:13;1.02;;;0.80;;
53977;SDS011;39886;47.984;-1.586;2023-08-31T04:13:39;1.08;;;0.90;;
53977;SDS011;39886;47.984;-1.586;2023-08-31T04:16:04;1.15;;;0.80;;
53977;SDS011;39886;47.984;-1.586;2023-08-31T04:18:30;1.45;;;1.10;;
53977;SDS011;39886;47.984;-1.586;2023-08-31T04:20:56;1.40;;;1.10;;
53977;SDS011;39886;47.984;-1.586;2023-08-31T04:23:24;1.10;;;1.00;;
53977;SDS011;39886;47.984;-1.586;2023-08-31T04:25:50;1.05;;;0.90;;
53977;SDS011;39886;47.984;-1.586;2023-08-31T04:28:16;1.27;;;0.93;;
53977;SDS011;39886;47.984;-1.586;2023-08-31T04:30:42;0.90;;;0.90;;
53977;SDS011;39886;47.984;-1.586;2023-08-31T04:33:09;0.73;;;0.73;;
53977;SDS011;39886;47.984;-1.586;2023-08-31T04:35:35;1.10;;;1.00;;
53977;SDS011;39886;47.984;-1.586;2023-08-31T04:38:01;1.10;;;1.00;;
53977;SDS011;39886;47.984;-1.586;2023-08-31T04:40:27;0.80;;;0.80;;
53977;SDS011;39886;47.984;-1.586;2023-08-31T04:42:56;1.35;;;0.85;;
53977;SDS011;39886;47.984;-1.586;2023-08-31T04:45:22;0.70;;;0.70;;
53977;SDS011;39886;47.984;-1.586;2023-08-31T04:47:48;1.13;;;1.02;;
53977;SDS011;39886;47.984;-1.586;2023-08-31T04:50:15;0.98;;;0.90;;
53977;SDS011;39886;47.984;-1.586;2023-08-31T04:52:42;1.25;;;0.95;;
53977;SDS011;39886;47.984;-1.586;2023-08-31T04:55:08;1.05;;;0.90;;
53977;SDS011;39886;47.984;-1.586;2023-08-31T04:57:34;1.52;;;0.90;;
53977;SDS011;39886;47.984;-1.586;2023-08-31T04:59:59;1.38;;;0.90;;
53977;SDS011;39886;47.984;-1.586;2023-08-31T05:02:25;0.70;;;0.70;;
53977;SDS011;39886;47.984;-1.586;2023-08-31T05:04:52;0.93;;;0.93;;
53977;SDS011;39886;47.984;-1.586;2023-08-31T05:07:18;1.70;;;1.00;;
53977;SDS011;39886;47.984;-1.586;2023-08-31T05:09:44;1.00;;;0.90;;
53977;SDS011;39886;47.984;-1.586;2023-08-31T05:12:09;0.98;;;0.88;;
53977;SDS011;39886;47.984;-1.586;2023-08-31T05:14:35;1.00;;;0.90;;
53977;SDS011;39886;47.984;-1.586;2023-08-31T05:17:06;1.38;;;0.98;;
53977;SDS011;39886;47.984;-1.586;2023-08-31T05:19:32;1.23;;;1.00;;
53977;SDS011;39886;47.984;-1.586;2023-08-31T05:21:57;0.90;;;0.82;;
53977;SDS011;39886;47.984;-1.586;2023-08-31T05:24:23;1.30;;;0.80;;
53977;SDS011;39886;47.984;-1.586;2023-08-31T05:26:49;0.77;;;0.77;;
53977;SDS011;39886;47.984;-1.586;2023-08-31T05:29:15;0.82;;;0.80;;
53977;SDS011;39886;47.984;-1.586;2023-08-31T05:31:41;1.30;;;1.15;;
53977;SDS011;39886;47.984;-1.586;2023-08-31T05:34:09;1.55;;;0.90;;
53977;SDS011;39886;47.984;-1.586;2023-08-31T05:36:35;0.80;;;0.80;;
53977;SDS011;39886;47.984;-1.586;2023-08-31T05:39:01;1.20;;;0.90;;
53977;SDS011;39886;47.984;-1.586;2023-08-31T05:41:27;1.08;;;0.90;;
53977;SDS011;39886;47.984;-1.586;2023-08-31T05:43:52;0.93;;;0.90;;
53977;SDS011;39886;47.984;-1.586;2023-08-31T05:46:18;1.05;;;0.93;;
53977;SDS011;39886;47.984;-1.586;2023-08-31T05:48:44;1.38;;;0.98;;
53977;SDS011;39886;47.984;-1.586;2023-08-31T05:51:10;0.85;;;0.82;;
53977;SDS011;39886;47.984;-1.586;2023-08-31T05:53:35;1.42;;;1.08;;
53977;SDS011;39886;47.984;-1.586;2023-08-31T05:56:02;1.13;;;1.02;;
53977;SDS011;39886;47.984;-1.586;2023-08-31T05:58:32;1.00;;;0.80;;
53977;SDS011;39886;47.984;-1.586;2023-08-31T06:00:59;0.80;;;0.80;;
53977;SDS011;39886;47.984;-1.586;2023-08-31T06:03:25;0.98;;;0.70;;
53977;SDS011;39886;47.984;-1.586;2023-08-31T06:05:51;0.95;;;0.93;;
53977;SDS011;39886;47.984;-1.586;2023-08-31T06:08:17;0.90;;;0.90;;
53977;SDS011;39886;47.984;-1.586;2023-08-31T06:10:43;1.25;;;0.85;;
53977;SDS011;39886;47.984;-1.586;2023-08-31T06:13:09;1.10;;;1.00;;
53977;SDS011;39886;47.984;-1.586;2023-08-31T06:15:35;1.52;;;0.85;;
53977;SDS011;39886;47.984;-1.586;2023-08-31T06:18:00;1.02;;;0.90;;
53977;SDS011;39886;47.984;-1.586;2023-08-31T06:20:26;1.80;;;0.93;;
53977;SDS011;39886;47.984;-1.586;2023-08-31T06:22:52;1.23;;;1.10;;
53977;SDS011;39886;47.984;-1.586;2023-08-31T06:25:17;1.65;;;1.00;;
53977;SDS011;39886;47.984;-1.586;2023-08-31T06:27:43;1.38;;;0.80;;
53977;SDS011;39886;47.984;-1.586;2023-08-31T06:30:10;1.23;;;0.80;;
53977;SDS011;39886;47.984;-1.586;2023-08-31T06:32:45;0.80;;;0.80;;
53977;SDS011;39886;47.984;-1.586;2023-08-31T06:35:12;0.90;;;0.80;;
53977;SDS011;39886;47.984;-1.586;2023-08-31T06:37:40;2.22;;;0.80;;
53977;SDS011;39886;47.984;-1.586;2023-08-31T06:40:07;1.05;;;0.90;;
53977;SDS011;39886;47.984;-1.586;2023-08-31T06:42:34;0.88;;;0.88;;
53977;SDS011;39886;47.984;-1.586;2023-08-31T06:45:03;1.95;;;0.90;;
53977;SDS011;39886;47.984;-1.586;2023-08-31T06:47:31;1.17;;;0.85;;
53977;SDS011;39886;47.984;-1.586;2023-08-31T06:49:57;2.38;;;1.00;;
53977;SDS011;39886;47.984;-1.586;2023-08-31T06:52:28;1.02;;;0.90;;
53977;SDS011;39886;47.984;-1.586;2023-08-31T06:54:54;0.77;;;0.77;;
53977;SDS011;39886;47.984;-1.586;2023-08-31T06:57:21;0.95;;;0.80;;
53977;SDS011;39886;47.984;-1.586;2023-08-31T06:59:48;1.25;;;0.98;;
53977;SDS011;39886;47.984;-1.586;2023-08-31T07:02:14;2.33;;;1.00;;
53977;SDS011;39886;47.984;-1.586;2023-08-31T07:04:39;1.70;;;0.90;;
53977;SDS011;39886;47.984;-1.586;2023-08-31T07:07:05;1.73;;;1.00;;
53977;SDS011;39886;47.984;-1.586;2023-08-31T07:09:33;0.98;;;0.80;;
53977;SDS011;39886;47.984;-1.586;2023-08-31T07:11:59;2.72;;;1.10;;
53977;SDS011;39886;47.984;-1.586;2023-08-31T07:14:26;0.98;;;0.80;;
53977;SDS011;39886;47.984;-1.586;2023-08-31T07:16:52;1.65;;;0.90;;
53977;SDS011;39886;47.984;-1.586;2023-08-31T07:19:18;1.45;;;1.08;;
53977;SDS011;39886;47.984;-1.586;2023-08-31T07:21:44;1.05;;;0.77;;
53977;SDS011;39886;47.984;-1.586;2023-08-31T07:24:10;1.77;;;1.00;;
53977;SDS011;39886;47.984;-1.586;2023-08-31T07:26:36;1.48;;;1.02;;
53977;SDS011;39886;47.984;-1.586;2023-08-31T07:29:01;6.07;;;0.90;;
53977;SDS011;39886;47.984;-1.586;2023-08-31T07:31:30;2.22;;;1.48;;
53977;SDS011;39886;47.984;-1.586;2023-08-31T07:33:57;1.13;;;0.93;;
53977;SDS011;39886;47.984;-1.586;2023-08-31T07:36:23;1.58;;;0.82;;
53977;SDS011;39886;47.984;-1.586;2023-08-31T07:38:49;4.47;;;1.10;;
53977;SDS011;39886;47.984;-1.586;2023-08-31T07:41:15;2.08;;;1.20;;
53977;SDS011;39886;47.984;-1.586;2023-08-31T07:43:40;4.43;;;1.13;;
53977;SDS011;39886;47.984;-1.586;2023-08-31T07:46:06;1.75;;;0.93;;
53977;SDS011;39886;47.984;-1.586;2023-08-31T07:48:32;1.42;;;0.88;;
53977;SDS011;39886;47.984;-1.586;2023-08-31T07:50:57;1.48;;;1.30;;
53977;SDS011;39886;47.984;-1.586;2023-08-31T07:53:23;5.82;;;1.30;;
53977;SDS011;39886;47.984;-1.586;2023-08-31T07:55:52;4.13;;;0.95;;
53977;SDS011;39886;47.984;-1.586;2023-08-31T07:58:19;3.35;;;1.27;;
53977;SDS011;39886;47.984;-1.586;2023-08-31T08:00:48;1.02;;;0.93;;
53977;SDS011;39886;47.984;-1.586;2023-08-31T08:03:17;0.90;;;0.85;;
53977;SDS011;39886;47.984;-1.586;2023-08-31T08:05:42;1.42;;;1.10;;
53977;SDS011;39886;47.984;-1.586;2023-08-31T08:08:08;3.75;;;1.20;;
53977;SDS011;39886;47.984;-1.586;2023-08-31T08:10:34;2.63;;;1.35;;
53977;SDS011;39886;47.984;-1.586;2023-08-31T08:13:00;2.15;;;1.00;;
53977;SDS011;39886;47.984;-1.586;2023-08-31T08:15:26;3.80;;;1.33;;
53977;SDS011;39886;47.984;-1.586;2023-08-31T08:17:51;2.80;;;1.13;;
53977;SDS011;39886;47.984;-1.586;2023-08-31T08:20:18;5.65;;;1.25;;
53977;SDS011;39886;47.984;-1.586;2023-08-31T08:22:44;2.22;;;1.08;;
53977;SDS011;39886;47.984;-1.586;2023-08-31T08:25:10;1.98;;;1.08;;
53977;SDS011;39886;47.984;-1.586;2023-08-31T08:27:36;1.92;;;1.30;;
53977;SDS011;39886;47.984;-1.586;2023-08-31T08:30:02;2.80;;;1.20;;
53977;SDS011;39886;47.984;-1.586;2023-08-31T08:32:28;2.38;;;0.90;;
53977;SDS011;39886;47.984;-1.586;2023-08-31T08:34:54;3.55;;;1.00;;
53977;SDS011;39886;47.984;-1.586;2023-08-31T08:37:20;1.40;;;1.00;;
53977;SDS011;39886;47.984;-1.586;2023-08-31T08:39:49;4.57;;;1.13;;
53977;SDS011;39886;47.984;-1.586;2023-08-31T08:42:15;6.18;;;1.33;;
53977;SDS011;39886;47.984;-1.586;2023-08-31T08:44:44;4.72;;;1.25;;
53977;SDS011;39886;47.984;-1.586;2023-08-31T08:47:11;9.13;;;1.27;;
53977;SDS011;39886;47.984;-1.586;2023-08-31T08:49:37;2.40;;;1.05;;
53977;SDS011;39886;47.984;-1.586;2023-08-31T08:52:03;3.55;;;1.10;;
53977;SDS011;39886;47.984;-1.586;2023-08-31T08:54:29;2.63;;;1.15;;
53977;SDS011;39886;47.984;-1.586;2023-08-31T08:56:56;4.50;;;1.20;;
53977;SDS011;39886;47.984;-1.586;2023-08-31T08:59:23;2.53;;;1.00;;
53977;SDS011;39886;47.984;-1.586;2023-08-31T09:01:49;2.05;;;1.20;;
53977;SDS011;39886;47.984;-1.586;2023-08-31T09:04:15;3.88;;;1.20;;
53977;SDS011;39886;47.984;-1.586;2023-08-31T09:06:41;1.55;;;1.05;;
53977;SDS011;39886;47.984;-1.586;2023-08-31T09:09:10;2.15;;;1.30;;
53977;SDS011;39886;47.984;-1.586;2023-08-31T09:11:35;3.22;;;1.25;;
53977;SDS011;39886;47.984;-1.586;2023-08-31T09:14:22;2.90;;;1.33;;
53977;SDS011;39886;47.984;-1.586;2023-08-31T09:16:50;1.85;;;1.10;;
53977;SDS011;39886;47.984;-1.586;2023-08-31T09:19:21;1.83;;;1.25;;
53977;SDS011;39886;47.984;-1.586;2023-08-31T09:21:48;3.67;;;1.48;;
53977;SDS011;39886;47.984;-1.586;2023-08-31T09:24:18;1.63;;;1.38;;
53977;SDS011;39886;47.984;-1.586;2023-08-31T09:26:44;2.53;;;1.60;;
53977;SDS011;39886;47.984;-1.586;2023-08-31T09:29:17;3.13;;;1.55;;
53977;SDS011;39886;47.984;-1.586;2023-08-31T09:31:43;6.82;;;2.20;;
53977;SDS011;39886;47.984;-1.586;2023-08-31T09:34:10;5.45;;;1.90;;
53977;SDS011;39886;47.984;-1.586;2023-08-31T09:36:36;2.92;;;1.30;;
53977;SDS011;39886;47.984;-1.586;2023-08-31T09:39:03;3.42;;;1.60;;
53977;SDS011;39886;47.984;-1.586;2023-08-31T09:41:30;4.15;;;1.80;;
53977;SDS011;39886;47.984;-1.586;2023-08-31T09:43:56;5.05;;;1.70;;
53977;SDS011;39886;47.984;-1.586;2023-08-31T09:46:39;2.30;;;1.52;;
53977;SDS011;39886;47.984;-1.586;2023-08-31T09:49:05;7.80;;;4.45;;
53977;SDS011;39886;47.984;-1.586;2023-08-31T09:51:31;13.98;;;7.03;;
53977;SDS011;39886;47.984;-1.586;2023-08-31T09:54:00;15.07;;;7.18;;
53977;SDS011;39886;47.984;-1.586;2023-08-31T09:56:30;4.50;;;1.90;;
53977;SDS011;39886;47.984;-1.586;2023-08-31T09:58:58;3.22;;;2.13;;
53977;SDS011;39886;47.984;-1.586;2023-08-31T10:01:24;3.33;;;1.70;;
53977;SDS011;39886;47.984;-1.586;2023-08-31T10:03:50;2.28;;;1.67;;
53977;SDS011;39886;47.984;-1.586;2023-08-31T10:06:17;2.20;;;1.60;;
53977;SDS011;39886;47.984;-1.586;2023-08-31T10:08:44;2.35;;;1.70;;
53977;SDS011;39886;47.984;-1.586;2023-08-31T10:11:10;8.60;;;1.73;;
53977;SDS011;39886;47.984;-1.586;2023-08-31T10:13:38;5.00;;;1.60;;
53977;SDS011;39886;47.984;-1.586;2023-08-31T10:16:06;4.07;;;1.70;;
53977;SDS011;39886;47.984;-1.586;2023-08-31T10:18:36;5.20;;;2.20;;
53977;SDS011;39886;47.984;-1.586;2023-08-31T10:21:02;2.83;;;1.63;;
53977;SDS011;39886;47.984;-1.586;2023-08-31T10:23:28;3.60;;;1.67;;
53977;SDS011;39886;47.984;-1.586;2023-08-31T10:28:20;3.25;;;1.60;;
53977;SDS011;39886;47.984;-1.586;2023-08-31T10:31:06;3.53;;;1.85;;
53977;SDS011;39886;47.984;-1.586;2023-08-31T10:33:45;7.25;;;1.83;;
53977;SDS011;39886;47.984;-1.586;2023-08-31T10:36:20;5.97;;;1.90;;
53977;SDS011;39886;47.984;-1.586;2023-08-31T10:38:47;2.22;;;1.52;;
53977;SDS011;39886;47.984;-1.586;2023-08-31T10:41:26;2.17;;;1.45;;
53977;SDS011;39886;47.984;-1.586;2023-08-31T10:44:00;2.03;;;1.40;;
53977;SDS011;39886;47.984;-1.586;2023-08-31T10:46:30;2.42;;;1.60;;
53977;SDS011;39886;47.984;-1.586;2023-08-31T10:48:58;1.85;;;1.40;;
53977;SDS011;39886;47.984;-1.586;2023-08-31T10:51:37;2.47;;;1.60;;
53977;SDS011;39886;47.984;-1.586;2023-08-31T10:54:11;4.00;;;1.52;;
53977;SDS011;39886;47.984;-1.586;2023-08-31T10:59:50;3.75;;;1.90;;
53977;SDS011;39886;47.984;-1.586;2023-08-31T11:02:27;1.95;;;1.58;;
53977;SDS011;39886;47.984;-1.586;2023-08-31T11:07:34;2.97;;;1.50;;
53977;SDS011;39886;47.984;-1.586;2023-08-31T11:10:19;4.53;;;1.67;;
53977;SDS011;39886;47.984;-1.586;2023-08-31T11:12:48;3.05;;;1.75;;
53977;SDS011;39886;47.984;-1.586;2023-08-31T11:15:16;4.65;;;1.92;;
53977;SDS011;39886;47.984;-1.586;2023-08-31T11:17:43;2.67;;;1.55;;
53977;SDS011;39886;47.984;-1.586;2023-08-31T11:20:13;2.88;;;1.80;;
53977;SDS011;39886;47.984;-1.586;2023-08-31T11:22:43;4.32;;;2.00;;
53977;SDS011;39886;47.984;-1.586;2023-08-31T11:25:11;3.17;;;1.63;;
53977;SDS011;39886;47.984;-1.586;2023-08-31T11:27:37;4.40;;;1.70;;
53977;SDS011;39886;47.984;-1.586;2023-08-31T11:30:06;4.55;;;1.50;;
53977;SDS011;39886;47.984;-1.586;2023-08-31T11:32:45;4.85;;;1.70;;
53977;SDS011;39886;47.984;-1.586;2023-08-31T11:35:13;3.53;;;1.80;;
53977;SDS011;39886;47.984;-1.586;2023-08-31T11:37:41;3.17;;;2.00;;
53977;SDS011;39886;47.984;-1.586;2023-08-31T11:40:08;4.03;;;1.65;;
53977;SDS011;39886;47.984;-1.586;2023-08-31T11:42:34;2.50;;;1.73;;
53977;SDS011;39886;47.984;-1.586;2023-08-31T11:45:00;3.97;;;1.88;;
53977;SDS011;39886;47.984;-1.586;2023-08-31T11:47:30;1.95;;;1.60;;
53977;SDS011;39886;47.984;-1.586;2023-08-31T11:49:59;2.72;;;1.83;;
53977;SDS011;39886;47.984;-1.586;2023-08-31T11:52:28;5.32;;;1.67;;
53977;SDS011;39886;47.984;-1.586;2023-08-31T11:54:55;4.45;;;1.50;;
53977;SDS011;39886;47.984;-1.586;2023-08-31T11:57:24;3.55;;;1.75;;
53977;SDS011;39886;47.984;-1.586;2023-08-31T11:59:51;4.32;;;1.92;;
53977;SDS011;39886;47.984;-1.586;2023-08-31T12:02:18;3.15;;;1.70;;
53977;SDS011;39886;47.984;-1.586;2023-08-31T12:04:45;4.70;;;1.23;;
53977;SDS011;39886;47.984;-1.586;2023-08-31T12:07:12;2.45;;;1.52;;
53977;SDS011;39886;47.984;-1.586;2023-08-31T12:09:42;2.67;;;1.50;;
53977;SDS011;39886;47.984;-1.586;2023-08-31T12:12:09;1.95;;;1.33;;
53977;SDS011;39886;47.984;-1.586;2023-08-31T12:14:37;6.13;;;1.60;;
53977;SDS011;39886;47.984;-1.586;2023-08-31T12:17:05;3.47;;;1.50;;
53977;SDS011;39886;47.984;-1.586;2023-08-31T12:19:33;2.53;;;1.48;;
53977;SDS011;39886;47.984;-1.586;2023-08-31T12:22:01;1.75;;;1.35;;
53977;SDS011;39886;47.984;-1.586;2023-08-31T12:24:27;2.45;;;1.35;;
53977;SDS011;39886;47.984;-1.586;2023-08-31T12:26:53;2.13;;;1.30;;
53977;SDS011;39886;47.984;-1.586;2023-08-31T12:29:19;2.28;;;1.40;;
53977;SDS011;39886;47.984;-1.586;2023-08-31T12:31:45;2.10;;;1.30;;
53977;SDS011;39886;47.984;-1.586;2023-08-31T12:34:11;2.60;;;1.35;;
53977;SDS011;39886;47.984;-1.586;2023-08-31T12:36:37;3.03;;;1.40;;
53977;SDS011;39886;47.984;-1.586;2023-08-31T12:39:05;3.58;;;1.58;;
53977;SDS011;39886;47.984;-1.586;2023-08-31T12:41:34;4.13;;;1.40;;
53977;SDS011;39886;47.984;-1.586;2023-08-31T12:44:02;4.97;;;1.67;;
53977;SDS011;39886;47.984;-1.586;2023-08-31T12:46:28;3.33;;;1.70;;
53977;SDS011;39886;47.984;-1.586;2023-08-31T12:48:54;3.22;;;1.40;;
53977;SDS011;39886;47.984;-1.586;2023-08-31T12:51:20;2.45;;;1.50;;
53977;SDS011;39886;47.984;-1.586;2023-08-31T12:53:46;3.13;;;1.40;;
53977;SDS011;39886;47.984;-1.586;2023-08-31T12:56:12;4.78;;;1.27;;
53977;SDS011;39886;47.984;-1.586;2023-08-31T12:58:38;2.22;;;1.27;;
53977;SDS011;39886;47.984;-1.586;2023-08-31T13:01:04;1.92;;;1.30;;
53977;SDS011;39886;47.984;-1.586;2023-08-31T13:03:30;2.22;;;1.23;;
53977;SDS011;39886;47.984;-1.586;2023-08-31T13:05:56;2.13;;;1.50;;
53977;SDS011;39886;47.984;-1.586;2023-08-31T13:08:22;2.33;;;1.40;;
53977;SDS011;39886;47.984;-1.586;2023-08-31T13:10:54;3.08;;;1.30;;
53977;SDS011;39886;47.984;-1.586;2023-08-31T13:13:23;2.13;;;1.27;;
53977;SDS011;39886;47.984;-1.586;2023-08-31T13:15:49;2.90;;;1.80;;
53977;SDS011;39886;47.984;-1.586;2023-08-31T13:18:15;2.90;;;1.50;;
53977;SDS011;39886;47.984;-1.586;2023-08-31T13:20:48;2.10;;;1.17;;
53977;SDS011;39886;47.984;-1.586;2023-08-31T13:23:14;1.75;;;1.27;;
53977;SDS011;39886;47.984;-1.586;2023-08-31T13:25:40;3.17;;;1.20;;
53977;SDS011;39886;47.984;-1.586;2023-08-31T13:28:06;1.90;;;1.20;;
53977;SDS011;39886;47.984;-1.586;2023-08-31T13:30:31;1.70;;;1.30;;
53977;SDS011;39886;47.984;-1.586;2023-08-31T13:32:57;2.50;;;1.58;;
53977;SDS011;39886;47.984;-1.586;2023-08-31T13:35:23;1.77;;;1.48;;
53977;SDS011;39886;47.984;-1.586;2023-08-31T13:37:48;1.50;;;1.13;;
53977;SDS011;39886;47.984;-1.586;2023-08-31T13:40:14;1.75;;;1.10;;
53977;SDS011;39886;47.984;-1.586;2023-08-31T13:42:48;2.13;;;1.33;;
53977;SDS011;39886;47.984;-1.586;2023-08-31T13:45:24;2.55;;;1.30;;
53977;SDS011;39886;47.984;-1.586;2023-08-31T13:47:50;2.47;;;1.20;;
53977;SDS011;39886;47.984;-1.586;2023-08-31T13:50:16;4.10;;;1.45;;
53977;SDS011;39886;47.984;-1.586;2023-08-31T13:52:42;5.18;;;1.90;;
53977;SDS011;39886;47.984;-1.586;2023-08-31T13:55:08;2.75;;;1.10;;
53977;SDS011;39886;47.984;-1.586;2023-08-31T13:57:33;4.38;;;1.30;;
53977;SDS011;39886;47.984;-1.586;2023-08-31T14:00:00;1.65;;;1.20;;
53977;SDS011;39886;47.984;-1.586;2023-08-31T14:02:26;3.10;;;1.20;;
53977;SDS011;39886;47.984;-1.586;2023-08-31T14:04:52;2.03;;;1.27;;
53977;SDS011;39886;47.984;-1.586;2023-08-31T14:07:19;2.15;;;1.38;;
53977;SDS011;39886;47.984;-1.586;2023-08-31T14:09:45;2.25;;;1.30;;
53977;SDS011;39886;47.984;-1.586;2023-08-31T14:12:10;1.83;;;1.42;;
53977;SDS011;39886;47.984;-1.586;2023-08-31T14:14:36;2.85;;;1.10;;
53977;SDS011;39886;47.984;-1.586;2023-08-31T14:17:02;1.30;;;1.15;;
53977;SDS011;39886;47.984;-1.586;2023-08-31T14:19:28;3.75;;;1.17;;
53977;SDS011;39886;47.984;-1.586;2023-08-31T14:21:54;3.20;;;1.30;;
53977;SDS011;39886;47.984;-1.586;2023-08-31T14:24:20;1.77;;;1.10;;
53977;SDS011;39886;47.984;-1.586;2023-08-31T14:26:46;4.00;;;1.30;;
53977;SDS011;39886;47.984;-1.586;2023-08-31T14:29:12;1.60;;;1.00;;
53977;SDS011;39886;47.984;-1.586;2023-08-31T14:31:38;2.70;;;1.10;;
53977;SDS011;39886;47.984;-1.586;2023-08-31T14:34:03;2.30;;;1.33;;
53977;SDS011;39886;47.984;-1.586;2023-08-31T14:36:29;2.25;;;1.08;;
53977;SDS011;39886;47.984;-1.586;2023-08-31T14:38:55;1.80;;;1.13;;
53977;SDS011;39886;47.984;-1.586;2023-08-31T14:41:21;3.15;;;1.10;;
53977;SDS011;39886;47.984;-1.586;2023-08-31T14:43:47;1.90;;;1.13;;
53977;SDS011;39886;47.984;-1.586;2023-08-31T14:46:12;2.38;;;1.17;;